createdAt,value
2018-07-22T19:49:19.947Z,1009.57
2018-07-22T19:50:19.903Z,1009.60
2018-07-22T19:52:12.665Z,1009.60
2018-07-22T19:53:12.586Z,1009.62
2018-07-22T19:55:05.367Z,1009.64
2018-07-22T19:56:05.311Z,1009.65
2018-07-22T19:57:58.108Z,1009.66
2018-07-22T19:58:58.026Z,1009.66
2018-07-22T20:00:50.826Z,1009.71
2018-07-22T20:01:50.771Z,1009.72
2018-07-22T20:03:43.550Z,1009.72
2018-07-22T20:04:43.473Z,1009.71
2018-07-22T20:06:36.244Z,1009.76
2018-07-22T20:07:36.199Z,1009.71
2018-07-22T20:09:29.052Z,1009.71
2018-07-22T20:10:28.947Z,1009.74
2018-07-22T20:12:21.739Z,1009.72
2018-07-22T20:13:21.683Z,1009.70
2018-07-22T20:15:14.459Z,1009.75
2018-07-22T20:16:14.387Z,1009.75
2018-07-22T20:18:07.173Z,1009.75
2018-07-22T20:19:07.095Z,1009.80
2018-07-22T20:20:59.930Z,1009.83
2018-07-22T20:21:59.859Z,1009.84
2018-07-22T20:23:52.780Z,1009.86
2018-07-22T20:24:52.595Z,1009.87
2018-07-22T20:26:45.398Z,1009.86
2018-07-22T20:27:45.331Z,1009.86
2018-07-22T20:29:38.104Z,1009.85
2018-07-22T20:30:38.030Z,1009.88
2018-07-22T20:32:30.829Z,1009.85
2018-07-22T20:33:30.764Z,1009.87
2018-07-22T20:35:23.628Z,1009.86
2018-07-22T20:36:23.487Z,1009.89
2018-07-22T20:38:16.263Z,1009.91
2018-07-22T20:39:16.192Z,1009.91
2018-07-22T20:41:08.988Z,1009.91
2018-07-22T20:42:08.919Z,1009.91
2018-07-22T20:44:01.706Z,1009.91
2018-07-22T20:45:01.637Z,1009.92
2018-07-22T20:46:54.413Z,1009.98
2018-07-22T20:47:54.352Z,1009.95
2018-07-22T20:49:47.143Z,1009.94
2018-07-22T20:50:47.063Z,1009.92
2018-07-22T20:52:39.848Z,1009.91
2018-07-22T20:53:39.786Z,1009.92
2018-07-22T20:55:32.581Z,1009.92
2018-07-22T20:56:32.507Z,1009.98
2018-07-22T20:58:25.301Z,1009.97
2018-07-22T20:59:25.227Z,1009.97
2018-07-22T21:01:18.057Z,1009.97
2018-07-22T21:02:17.998Z,1009.95
2018-07-22T21:04:10.908Z,1009.98
2018-07-22T21:05:10.759Z,1009.98
2018-07-22T21:07:03.580Z,1009.99
2018-07-22T21:08:03.494Z,1010.00
2018-07-22T21:09:56.241Z,1009.97
2018-07-22T21:10:56.167Z,1009.96
2018-07-22T21:12:48.934Z,1010.00
2018-07-22T21:13:48.882Z,1009.98
2018-07-22T21:15:41.717Z,1010.02
2018-07-22T21:16:41.651Z,1010.04
2018-07-22T21:18:34.465Z,1010.00
2018-07-22T21:19:34.384Z,1010.02
2018-07-22T21:21:27.183Z,1010.08
2018-07-22T21:22:27.108Z,1010.09
2018-07-22T21:24:19.889Z,1010.09
2018-07-22T21:25:19.828Z,1010.12
2018-07-22T21:27:12.600Z,1010.15
2018-07-22T21:28:12.560Z,1010.14
2018-07-22T21:30:05.564Z,1010.15
2018-07-22T21:31:05.327Z,1010.15
2018-07-22T21:32:58.088Z,1010.16
2018-07-22T21:33:58.024Z,1010.12
2018-07-22T21:35:50.831Z,1010.15
2018-07-22T21:36:50.770Z,1010.15
2018-07-22T21:38:43.555Z,1010.16
2018-07-22T21:39:43.477Z,1010.15
2018-07-22T21:41:36.320Z,1010.15
2018-07-22T21:42:36.206Z,1010.13
2018-07-22T21:44:29.041Z,1010.16
2018-07-22T21:45:28.931Z,1010.15
2018-07-22T21:47:21.718Z,1010.16
2018-07-22T21:48:21.656Z,1010.16
2018-07-22T21:50:14.464Z,1010.19
2018-07-22T21:51:14.393Z,1010.12
2018-07-22T21:53:07.225Z,1010.18
2018-07-22T21:54:07.095Z,1010.16
2018-07-22T21:55:59.915Z,1010.14
2018-07-22T21:56:59.845Z,1010.14
2018-07-22T21:58:52.668Z,1010.20
2018-07-22T21:59:52.617Z,1010.17
2018-07-22T22:01:45.390Z,1010.16
2018-07-22T22:02:45.306Z,1010.19
2018-07-22T22:04:38.105Z,1010.13
2018-07-22T22:05:38.030Z,1010.13
2018-07-22T22:07:30.856Z,1010.16
2018-07-22T22:08:30.789Z,1010.16
2018-07-22T22:10:23.596Z,1010.17
2018-07-22T22:11:23.620Z,1010.18
2018-07-22T22:13:16.299Z,1010.16
2018-07-22T22:14:16.228Z,1010.15
2018-07-22T22:16:09.050Z,1010.16
2018-07-22T22:17:09.031Z,1010.16
2018-07-22T22:19:01.715Z,1010.19
2018-07-22T22:20:01.650Z,1010.21
2018-07-22T22:21:54.454Z,1010.16
2018-07-22T22:22:54.383Z,1010.19
2018-07-22T22:24:47.251Z,1010.23
2018-07-22T22:25:47.090Z,1010.22
2018-07-22T22:27:39.890Z,1010.19
2018-07-22T22:28:39.819Z,1010.19
2018-07-22T22:30:32.651Z,1010.20
2018-07-22T22:31:32.557Z,1010.22
2018-07-22T22:33:25.363Z,1010.25
2018-07-22T22:34:25.297Z,1010.21
2018-07-22T22:36:18.167Z,1010.19
2018-07-22T22:37:18.096Z,1010.25
2018-07-22T22:39:10.889Z,1010.21
2018-07-22T22:40:10.810Z,1010.22
2018-07-22T22:42:03.601Z,1010.19
2018-07-22T22:43:03.538Z,1010.18
2018-07-22T22:44:56.540Z,1010.19
2018-07-22T22:45:56.449Z,1010.20
2018-07-22T22:47:49.238Z,1010.25
2018-07-22T22:48:49.193Z,1010.24
2018-07-22T22:50:41.997Z,1010.28
2018-07-22T22:51:41.894Z,1010.26
2018-07-22T22:53:34.702Z,1010.23
2018-07-22T22:54:34.624Z,1010.27
2018-07-22T22:56:27.418Z,1010.25
2018-07-22T22:57:27.331Z,1010.23
2018-07-22T22:59:20.128Z,1010.22
2018-07-22T23:00:20.059Z,1010.24
2018-07-22T23:02:12.860Z,1010.21
2018-07-22T23:03:12.777Z,1010.19
2018-07-22T23:05:05.568Z,1010.17
2018-07-22T23:06:05.494Z,1010.15
2018-07-22T23:07:58.275Z,1010.14
2018-07-22T23:08:58.209Z,1010.19
2018-07-22T23:10:51.018Z,1010.14
2018-07-22T23:11:50.939Z,1010.13
2018-07-22T23:13:43.722Z,1010.11
2018-07-22T23:14:43.660Z,1010.10
2018-07-22T23:16:36.463Z,1010.07
2018-07-22T23:17:36.387Z,1010.14
2018-07-22T23:19:29.192Z,1010.10
2018-07-22T23:20:29.133Z,1010.11
2018-07-22T23:22:21.949Z,1010.10
2018-07-22T23:23:21.868Z,1010.09
2018-07-22T23:25:14.665Z,1010.11
2018-07-22T23:26:14.588Z,1010.11
2018-07-22T23:28:07.443Z,1010.10
2018-07-22T23:29:07.321Z,1010.09
2018-07-22T23:31:00.113Z,1010.11
2018-07-22T23:32:00.034Z,1010.07
2018-07-22T23:33:52.816Z,1010.09
2018-07-22T23:34:52.769Z,1010.13
2018-07-22T23:36:45.542Z,1010.13
2018-07-22T23:37:45.465Z,1010.11
2018-07-22T23:39:38.515Z,1010.13
2018-07-22T23:40:38.411Z,1010.11
2018-07-22T23:42:31.196Z,1010.10
2018-07-22T23:43:31.127Z,1010.15
2018-07-22T23:45:23.902Z,1010.18
2018-07-22T23:46:23.824Z,1010.24
2018-07-22T23:48:16.640Z,1010.19
2018-07-22T23:49:16.564Z,1010.17
2018-07-22T23:51:09.371Z,1010.16
2018-07-22T23:52:09.295Z,1010.17
2018-07-22T23:54:02.102Z,1010.16
2018-07-22T23:55:02.007Z,1010.15
2018-07-22T23:56:54.833Z,1010.16
2018-07-22T23:57:54.731Z,1010.17
2018-07-22T23:59:47.512Z,1010.18
